EmailTwitter


Observations de surface / Québec / CYSC

Régions: Québec | Canada | États-Unis | Europe | France | UK | Ailleurs
Station
Affichage
Infos & localisation pour CYSC | Aide pour décoder les METARs

Observations prises le 2020-10-29 à 14H00 UTC à SHERBROOKE, QB (CYSC)

Etat du ciel: couvert.

Température: 5.0 Celsius

Point de rosée: 1.0 Celsius

Humidité relative: 75%

Vents: Ouest à 4 km/h ou 2 noeuds.

Pression au niveau moyen de la mer: 101.29 kilopascals.

Calage altimétrique: 101.18 kilopascals ou 29.88 pouces de mercure.

Visibilité horizontale: 9.00 milles terrestres ou 14.40 kilomètres.

Hauteur du plafond: 1219 mètres ( 4000 pieds ).

Observation METAR:

CYSC 291400Z AUTO 27002KT 9SM OVC040 05/01 A2988 RMK SLP129=